Time;durP1;ratioP1;P1;durP2;ratioP2;P2;SDS_P1;SDS_P2;PMS_P1;PMS_P2;Temp;Humidity;BMP_temperature;BMP_pressure;BME280_temperature;BME280_humidity;BME280_pressure;Samples;Min_cycle;Max_cycle;Signal;HPM_P1;HPM_P2
2022/09/21 00:01:18;;;;;;;;;;;;;;;27.18;30.77;100765.16;5016716;28;1135;-44
2022/09/21 00:03:43;;;;;;;;;;;;;;;27.14;30.85;100764.72;5016594;28;1147;-46
2022/09/21 00:06:13;;;;;;;;;;;;;;;27.13;31.10;100763.88;5016359;28;1155;-46
2022/09/21 00:08:38;;;;;;;;;;;;;;;27.22;30.92;100764.66;5015981;28;895;-45
2022/09/21 00:11:04;;;;;;;;;;;;;;;27.18;30.75;100766.03;5016635;28;1088;-45
2022/09/21 00:13:31;;;;;;;;;;;;;;;27.13;30.98;100768.44;5019656;28;1128;-46
2022/09/21 00:15:56;;;;;;;;;;;;;;;27.14;30.98;100765.53;5020377;28;1219;-45
2022/09/21 00:18:22;;;;;;;;;;;;;;;27.25;30.99;100760.72;5020155;28;1952;-45
2022/09/21 00:20:47;;;;;;;;;;;;;;;27.16;31.27;100762.66;5020311;28;933;-46
2022/09/21 00:23:13;;;;;;;;;;;;;;;27.15;31.06;100766.38;5012906;28;1203;-45
2022/09/21 00:25:38;;;;;;;;;;;;;;;27.21;31.02;100764.84;5012738;28;1128;-45
2022/09/21 00:28:03;;;;;;;;;;;;;;;27.14;31.21;100762.03;5019858;28;1171;-46
2022/09/21 00:30:29;;;;;;;;;;;;;;;27.11;31.16;100765.09;5019995;28;1230;-46
2022/09/21 00:32:54;;;;;;;;;;;;;;;27.07;31.24;100764.63;5019768;28;918;-45
2022/09/21 00:35:19;;;;;;;;;;;;;;;27.10;30.91;100764.25;5020437;28;1219;-48
2022/09/21 00:37:44;;;;;;;;;;;;;;;27.12;31.01;100769.47;5019948;28;1957;-45
2022/09/21 00:40:10;;;;;;;;;;;;;;;27.14;30.68;100765.53;5019967;28;1179;-45
2022/09/21 00:42:36;;;;;;;;;;;;;;;27.00;31.17;100769.88;5020087;28;1124;-46
2022/09/21 00:45:01;;;;;;;;;;;;;;;27.07;31.08;100775.41;5019646;28;945;-44
2022/09/21 00:47:39;;;;;;;;;;;;;;;27.14;30.98;100781.75;5019422;28;1116;-46
2022/09/21 00:50:06;;;;;;;;;;;;;;;27.08;31.18;100782.47;5005648;28;1124;-43
2022/09/21 00:52:32;;;;;;;;;;;;;;;27.08;31.10;100771.69;5019707;28;1136;-44
2022/09/21 00:55:11;;;;;;;;;;;;;;;27.09;31.21;100776.03;5019884;28;1163;-45
2022/09/21 00:57:36;;;;;;;;;;;;;;;26.97;31.12;100772.09;5019574;28;1898;-45
2022/09/21 01:00:03;;;;;;;;;;;;;;;27.12;31.25;100774.88;5006903;28;1200;-43
2022/09/21 01:02:29;;;;;;;;;;;;;;;27.05;31.19;100763.09;5017604;28;1243;-43
2022/09/21 01:04:54;;;;;;;;;;;;;;;27.13;31.16;100769.28;5019518;28;1178;-44
2022/09/21 01:07:24;;;;;;;;;;;;;;;27.12;31.28;100777.56;5019152;28;1120;-44
2022/09/21 01:09:51;;;;;;;;;;;;;;;27.00;31.14;100771.72;5018647;28;1136;-44
2022/09/21 01:12:22;;;;;;;;;;;;;;;27.17;31.00;100769.75;5004756;28;1381;-43
2022/09/21 01:15:14;;;;;;;;;;;;;;;27.13;31.13;100771.13;5019109;28;1214;-45
2022/09/21 01:18:11;;;;;;;;;;;;;;;26.99;31.29;100770.88;4979288;28;1898;-46
2022/09/21 01:20:42;;;;;;;;;;;;;;;26.98;31.27;100766.50;4975401;28;1278;-44
2022/09/21 01:23:08;;;;;;;;;;;;;;;27.07;31.54;100759.22;5018864;28;1167;-45
2022/09/21 01:25:48;;;;;;;;;;;;;;;27.06;31.20;100760.22;5019306;28;1195;-45
2022/09/21 01:28:28;;;;;;;;;;;;;;;27.06;31.04;100762.09;5019169;28;1193;-45
2022/09/21 01:30:53;;;;;;;;;;;;;;;27.04;31.37;100762.28;5019624;28;1084;-45
2022/09/21 01:33:25;;;;;;;;;;;;;;;27.05;31.18;100766.66;5009364;28;1188;-45
2022/09/21 01:35:55;;;;;;;;;;;;;;;27.16;31.31;100761.84;5011876;28;1164;-44
2022/09/21 01:38:23;;;;;;;;;;;;;;;26.98;31.24;100754.84;5003509;28;1906;-45
2022/09/21 01:40:50;;;;;;;;;;;;;;;26.95;31.48;100755.22;5010412;28;1140;-44
2022/09/21 01:43:24;;;;;;;;;;;;;;;27.00;31.52;100752.81;5011320;28;1117;-45
2022/09/21 01:45:50;;;;;;;;;;;;;;;26.96;31.55;100748.81;5018264;28;1040;-45
2022/09/21 01:48:16;;;;;;;;;;;;;;;26.95;31.22;100750.69;5005560;28;1537;-44
2022/09/21 01:50:43;;;;;;;;;;;;;;;27.06;31.60;100752.13;5016214;28;1161;-45
2022/09/21 01:53:14;;;;;;;;;;;;;;;27.00;31.54;100742.88;5006857;28;1187;-45
2022/09/21 01:55:41;;;;;;;;;;;;;;;27.04;31.37;100748.78;5016279;28;1156;-44
2022/09/21 01:58:16;;;;;;;;;;;;;;;26.93;31.43;100741.91;5017661;28;1907;-43
2022/09/21 02:00:44;;;;;;;;;;;;;;;26.86;31.42;100736.41;5018268;28;1218;-45
2022/09/21 02:03:14;;;;;;;;;;;;;;;26.90;31.67;100737.72;5017542;28;1464;-44
2022/09/21 02:05:40;;;;;;;;;;;;;;;27.00;31.38;100744.72;5019225;28;1159;-44
2022/09/21 02:08:05;;;;;;;;;;;;;;;27.00;31.43;100736.63;5013389;28;1199;-43
2022/09/21 02:10:32;;;;;;;;;;;;;;;26.96;31.44;100736.16;5017281;28;1152;-44
2022/09/21 02:13:00;;;;;;;;;;;;;;;26.88;31.33;100745.16;5004551;28;1099;-45
2022/09/21 02:15:48;;;;;;;;;;;;;;;26.92;31.55;100739.41;5018637;28;1112;-44
2022/09/21 02:18:20;;;;;;;;;;;;;;;26.85;31.34;100744.69;4986949;28;1960;-44
2022/09/21 02:20:50;;;;;;;;;;;;;;;26.83;31.46;100742.16;5018222;28;1104;-45
2022/09/21 02:23:16;;;;;;;;;;;;;;;26.86;31.54;100738.28;5008814;28;1159;-44
2022/09/21 02:25:56;;;;;;;;;;;;;;;26.82;31.35;100743.19;5018366;28;1104;-44
2022/09/21 02:28:24;;;;;;;;;;;;;;;26.85;31.71;100737.44;4997547;28;1192;-44
2022/09/21 02:30:56;;;;;;;;;;;;;;;26.88;31.45;100738.91;5010667;28;1172;-44
2022/09/21 02:33:31;;;;;;;;;;;;;;;26.89;31.64;100738.72;5004265;28;1184;-47
2022/09/21 02:36:00;;;;;;;;;;;;;;;26.84;31.35;100740.31;5010669;28;1120;-44
2022/09/21 02:38:51;;;;;;;;;;;;;;;26.84;31.54;100738.44;5017724;28;1910;-46
2022/09/21 02:41:16;;;;;;;;;;;;;;;26.84;31.72;100734.91;5013507;28;1108;-45
2022/09/21 02:43:47;;;;;;;;;;;;;;;26.90;31.68;100742.28;5017745;28;1179;-45
2022/09/21 02:46:24;;;;;;;;;;;;;;;26.97;31.59;100742.41;5007313;28;939;-45
2022/09/21 02:48:51;;;;;;;;;;;;;;;26.94;31.58;100738.22;5016635;28;1343;-44
2022/09/21 02:51:17;;;;;;;;;;;;;;;26.94;31.38;100753.56;5017293;28;1246;-44
2022/09/21 02:53:43;;;;;;;;;;;;;;;27.09;31.12;100740.94;5003166;28;1184;-44
2022/09/21 02:56:10;;;;;;;;;;;;;;;26.93;31.38;100750.00;5010320;28;1180;-45
2022/09/21 02:58:39;;;;;;;;;;;;;;;26.91;31.68;100738.56;5017181;28;1966;-45
2022/09/21 03:01:06;;;;;;;;;;;;;;;26.93;31.52;100747.31;5004156;28;1262;-43
2022/09/21 03:03:31;;;;;;;;;;;;;;;26.97;31.45;100742.41;5004279;28;1216;-45
2022/09/21 03:05:57;;;;;;;;;;;;;;;27.02;31.68;100748.13;5015245;28;1120;-42
2022/09/21 03:08:23;;;;;;;;;;;;;;;26.68;29.46;100746.66;5008473;28;1116;-44
2022/09/21 03:10:49;;;;;;;;;;;;;;;25.92;27.05;100749.75;5017094;28;1171;-44
2022/09/21 03:13:15;;;;;;;;;;;;;;;25.61;27.39;100747.81;5016936;28;1222;-44
2022/09/21 03:15:40;;;;;;;;;;;;;;;25.15;26.98;100748.41;5017511;28;1151;-43
2022/09/21 03:18:08;;;;;;;;;;;;;;;24.96;27.83;100745.06;5017047;28;1886;-47
2022/09/21 03:20:33;;;;;;;;;;;;;;;24.64;27.00;100749.41;5016656;28;1156;-47
2022/09/21 03:22:59;;;;;;;;;;;;;;;24.56;27.78;100744.84;5016626;28;1215;-49
2022/09/21 03:25:25;;;;;;;;;;;;;;;24.23;27.72;100742.91;5017632;28;1202;-48
2022/09/21 03:27:52;;;;;;;;;;;;;;;24.00;27.84;100742.63;5017215;28;1238;-50
2022/09/21 03:30:17;;;;;;;;;;;;;;;23.89;27.82;100747.28;5016724;28;1226;-51
2022/09/21 03:32:43;;;;;;;;;;;;;;;23.63;27.90;100744.66;5017007;28;1175;-52
2022/09/21 03:35:08;;;;;;;;;;;;;;;23.80;27.41;100759.00;5017046;28;1143;-50
2022/09/21 03:37:33;;;;;;;;;;;;;;;23.82;27.57;100760.53;5016894;28;1948;-49
2022/09/21 03:39:59;;;;;;;;;;;;;;;23.71;27.66;100753.59;5016780;28;1100;-47
2022/09/21 03:42:24;;;;;;;;;;;;;;;23.66;27.50;100758.59;5017604;28;1218;-47
2022/09/21 03:44:49;;;;;;;;;;;;;;;23.58;27.91;100755.88;5016183;28;1199;-47
2022/09/21 03:47:15;;;;;;;;;;;;;;;23.64;28.09;100757.91;5017204;28;1231;-46
2022/09/21 03:49:40;;;;;;;;;;;;;;;23.36;28.31;100756.22;5016372;28;1215;-46
2022/09/21 03:52:05;;;;;;;;;;;;;;;23.21;28.45;100761.31;5015873;28;1182;-46
2022/09/21 03:54:31;;;;;;;;;;;;;;;24.37;28.05;100762.13;5014375;28;1544;-43
2022/09/21 03:56:56;;;;;;;;;;;;;;;24.93;27.92;100766.91;5015877;28;1405;-45
2022/09/21 03:59:21;;;;;;;;;;;;;;;25.08;28.51;100767.09;5014839;28;1949;-47
2022/09/21 04:01:46;;;;;;;;;;;;;;;25.21;28.29;100768.44;5015612;28;1177;-46
2022/09/21 04:04:12;;;;;;;;;;;;;;;25.25;28.53;100773.31;5016201;28;949;-48
2022/09/21 04:06:37;;;;;;;;;;;;;;;25.42;28.41;100771.41;5016235;28;1076;-49
2022/09/21 04:09:02;;;;;;;;;;;;;;;25.49;29.23;100778.84;5015059;28;1198;-47
2022/09/21 04:11:28;;;;;;;;;;;;;;;25.48;28.72;100775.28;5016067;28;1181;-49
2022/09/21 04:13:56;;;;;;;;;;;;;;;25.40;29.35;100773.47;5014991;28;1338;-45
2022/09/21 04:16:24;;;;;;;;;;;;;;;25.43;29.62;100783.03;5016422;28;1127;-45
2022/09/21 04:18:49;;;;;;;;;;;;;;;25.40;30.38;100778.00;5016853;28;1902;-44
2022/09/21 04:21:16;;;;;;;;;;;;;;;25.42;30.46;100776.00;5014794;28;1239;-47
2022/09/21 04:23:41;;;;;;;;;;;;;;;25.44;30.86;100782.88;5015487;28;1572;-49
2022/09/21 04:26:15;;;;;;;;;;;;;;;25.44;31.51;100777.47;5016038;28;1099;-44
2022/09/21 04:28:40;;;;;;;;;;;;;;;25.51;31.36;100774.09;5014996;28;1199;-47
2022/09/21 04:31:05;;;;;;;;;;;;;;;25.50;31.53;100775.97;5016715;28;1128;-44
2022/09/21 04:33:31;;;;;;;;;;;;;;;25.50;32.00;100769.75;5011316;28;1037;-44
2022/09/21 04:35:56;;;;;;;;;;;;;;;25.63;31.68;100783.53;5014590;28;1419;-47
2022/09/21 04:38:21;;;;;;;;;;;;;;;25.66;32.48;100776.97;5015401;28;1972;-41
2022/09/21 04:40:53;;;;;;;;;;;;;;;25.66;31.66;100785.03;5011324;28;1442;-44
2022/09/21 04:43:18;;;;;;;;;;;;;;;25.68;31.78;100786.56;5016167;28;1108;-45
2022/09/21 04:45:44;;;;;;;;;;;;;;;25.65;31.65;100791.47;5015956;28;1116;-46
2022/09/21 04:48:09;;;;;;;;;;;;;;;25.67;31.75;100790.25;5005727;28;1156;-43
2022/09/21 04:50:35;;;;;;;;;;;;;;;25.64;31.88;100792.47;5016088;28;1128;-43
2022/09/21 04:53:00;;;;;;;;;;;;;;;25.69;31.92;100790.13;4997544;28;1420;-45
2022/09/21 04:55:25;;;;;;;;;;;;;;;25.73;31.69;100793.28;5007804;28;1233;-45
2022/09/21 04:57:51;;;;;;;;;;;;;;;25.73;31.73;100791.44;5013059;28;1902;-43
2022/09/21 05:00:16;;;;;;;;;;;;;;;25.78;31.91;100797.16;5019173;28;1224;-46
2022/09/21 05:02:41;;;;;;;;;;;;;;;25.81;31.89;100793.25;5014385;28;1565;-45
2022/09/21 05:05:07;;;;;;;;;;;;;;;25.83;32.09;100793.94;5017847;28;1231;-44
2022/09/21 05:07:32;;;;;;;;;;;;;;;25.87;31.93;100791.72;5014909;28;1049;-44
2022/09/21 05:10:03;;;;;;;;;;;;;;;25.92;32.05;100781.28;5019571;28;1215;-44
2022/09/21 05:12:29;;;;;;;;;;;;;;;26.04;31.58;100787.94;5011200;28;1428;-46
2022/09/21 05:14:55;;;;;;;;;;;;;;;26.13;32.65;100787.91;5018092;28;1190;-44
2022/09/21 05:17:21;;;;;;;;;;;;;;;25.96;32.12;100782.59;5016975;28;1910;-44
2022/09/21 05:19:47;;;;;;;;;;;;;;;26.20;32.10;100788.91;5018739;28;1284;-42
2022/09/21 05:22:12;;;;;;;;;;;;;;;25.94;32.15;100787.34;5016040;28;1245;-42
2022/09/21 05:24:37;;;;;;;;;;;;;;;25.99;32.93;100786.81;5011970;28;1041;-46
2022/09/21 05:27:03;;;;;;;;;;;;;;;25.89;33.26;100785.13;5008140;28;1096;-43
2022/09/21 05:29:28;;;;;;;;;;;;;;;25.89;33.43;100782.44;5019237;28;1116;-44
2022/09/21 05:32:00;;;;;;;;;;;;;;;25.88;34.03;100788.88;5019469;28;1293;-44
2022/09/21 05:34:40;;;;;;;;;;;;;;;25.95;34.18;100786.31;5018626;28;899;-44
2022/09/21 05:37:10;;;;;;;;;;;;;;;25.92;34.05;100779.41;5013235;28;1153;-41
2022/09/21 05:39:36;;;;;;;;;;;;;;;25.92;34.27;100779.41;4998513;28;1973;-43
2022/09/21 05:42:01;;;;;;;;;;;;;;;25.90;34.17;100786.00;4998770;28;1223;-45
2022/09/21 05:44:26;;;;;;;;;;;;;;;25.96;34.56;100777.19;4999177;28;1198;-45
2022/09/21 05:47:00;;;;;;;;;;;;;;;25.94;34.36;100787.34;5011344;28;1200;-44
2022/09/21 05:49:28;;;;;;;;;;;;;;;25.98;34.37;100782.41;5017208;28;1116;-44
2022/09/21 05:52:03;;;;;;;;;;;;;;;26.00;34.97;100785.78;5019226;28;1211;-44
2022/09/21 05:54:44;;;;;;;;;;;;;;;26.01;34.76;100782.91;5011795;28;1021;-42
2022/09/21 05:57:09;;;;;;;;;;;;;;;26.04;34.88;100785.25;5018045;28;1163;-44
2022/09/21 06:00:01;;;;;;;;;;;;;;;26.02;35.12;100787.31;5011613;28;1965;-43
2022/09/21 06:02:32;;;;;;;;;;;;;;;26.13;35.19;100788.75;5015574;28;1045;-47
2022/09/21 06:04:57;;;;;;;;;;;;;;;26.20;35.06;100791.59;5018526;28;1230;-42
2022/09/21 06:07:23;;;;;;;;;;;;;;;26.26;35.42;100781.94;5016879;28;1109;-39
2022/09/21 06:09:48;;;;;;;;;;;;;;;26.54;34.84;100778.81;5014903;28;1124;-41
2022/09/21 06:12:13;;;;;;;;;;;;;;;26.66;34.58;100784.63;5018149;28;1167;-42
2022/09/21 06:14:39;;;;;;;;;;;;;;;26.56;34.63;100794.81;5017998;28;1159;-43
2022/09/21 06:17:04;;;;;;;;;;;;;;;26.48;34.77;100788.44;5013877;28;1128;-40
2022/09/21 06:19:29;;;;;;;;;;;;;;;26.58;33.74;100795.47;5017641;28;1944;-40
2022/09/21 06:21:54;;;;;;;;;;;;;;;26.59;33.59;100791.75;5018140;28;1139;-44
2022/09/21 06:24:20;;;;;;;;;;;;;;;26.63;33.29;100790.38;5018529;28;1104;-41
2022/09/21 06:26:45;;;;;;;;;;;;;;;26.67;32.77;100790.88;5017979;28;1127;-40
2022/09/21 06:29:10;;;;;;;;;;;;;;;26.69;32.59;100795.06;5018065;28;1116;-40
2022/09/21 06:31:36;;;;;;;;;;;;;;;26.89;32.49;100790.00;5018361;28;1190;-42
2022/09/21 06:34:01;;;;;;;;;;;;;;;26.83;32.37;100788.03;5008212;28;1128;-41
2022/09/21 06:36:26;;;;;;;;;;;;;;;26.95;32.20;100795.72;5018121;28;1226;-40
2022/09/21 06:38:51;;;;;;;;;;;;;;;26.95;33.46;100803.81;5017781;28;1914;-42
2022/09/21 06:41:17;;;;;;;;;;;;;;;26.91;33.49;100797.94;5017819;28;1116;-43
2022/09/21 06:43:42;;;;;;;;;;;;;;;26.88;33.41;100790.19;5010018;28;1309;-43
2022/09/21 06:46:07;;;;;;;;;;;;;;;26.94;33.16;100797.59;5013079;28;1310;-41
2022/09/21 06:48:33;;;;;;;;;;;;;;;27.11;33.45;100797.50;5009133;28;1227;-40
2022/09/21 06:51:02;;;;;;;;;;;;;;;26.98;34.03;100789.94;5015304;28;1266;-40
2022/09/21 06:53:27;;;;;;;;;;;;;;;27.04;33.79;100788.44;5004478;28;1152;-40
2022/09/21 06:55:53;;;;;;;;;;;;;;;27.05;34.10;100782.00;5011413;28;1195;-41
2022/09/21 06:58:18;;;;;;;;;;;;;;;27.23;33.30;100787.91;5009058;28;1960;-41
2022/09/21 07:00:43;;;;;;;;;;;;;;;27.46;33.41;100791.59;5016542;28;1226;-41
2022/09/21 07:03:10;;;;;;;;;;;;;;;27.51;32.91;100786.47;5008821;28;1220;-39
2022/09/21 07:05:35;;;;;;;;;;;;;;;27.58;32.98;100789.25;4999204;28;1136;-40
2022/09/21 07:08:00;;;;;;;;;;;;;;;27.52;33.36;100788.16;4999652;28;985;-42
2022/09/21 07:10:26;;;;;;;;;;;;;;;27.63;33.03;100789.53;5016669;28;1127;-42
2022/09/21 07:12:51;;;;;;;;;;;;;;;27.70;32.64;100786.97;5017621;28;1124;-40
2022/09/21 07:15:18;;;;;;;;;;;;;;;27.73;32.57;100787.44;5016839;28;1017;-41
2022/09/21 07:17:43;;;;;;;;;;;;;;;27.77;32.85;100778.97;5013391;28;1894;-42
2022/09/21 07:20:08;;;;;;;;;;;;;;;27.72;33.04;100774.97;5014046;28;1235;-41
2022/09/21 07:22:34;;;;;;;;;;;;;;;27.80;33.26;100781.28;5010298;28;1455;-41
2022/09/21 07:24:59;;;;;;;;;;;;;;;27.33;33.84;100790.34;5003454;28;1128;-41
2022/09/21 07:27:24;;;;;;;;;;;;;;;27.28;32.83;100791.94;5008100;28;1695;-42
2022/09/21 07:29:50;;;;;;;;;;;;;;;27.77;32.50;100782.50;5011142;28;1217;-42
2022/09/21 07:32:15;;;;;;;;;;;;;;;28.14;32.23;100779.03;5010288;28;1132;-42
2022/09/21 07:34:41;;;;;;;;;;;;;;;28.29;31.46;100789.81;5010296;28;1080;-42
2022/09/21 07:37:06;;;;;;;;;;;;;;;28.36;31.15;100788.06;5015943;28;1100;-43
2022/09/21 07:39:31;;;;;;;;;;;;;;;28.47;31.33;100781.31;5011908;28;1905;-41
2022/09/21 07:42:00;;;;;;;;;;;;;;;28.56;30.96;100782.84;5002214;28;1485;-42
2022/09/21 07:44:25;;;;;;;;;;;;;;;28.61;30.79;100785.00;5013800;28;1061;-43
2022/09/21 07:46:51;;;;;;;;;;;;;;;28.65;30.83;100780.88;5015906;28;1238;-42
2022/09/21 07:49:16;;;;;;;;;;;;;;;28.69;30.80;100775.91;5015781;28;1115;-42
2022/09/21 07:51:41;;;;;;;;;;;;;;;28.76;30.62;100776.78;5016234;28;1147;-42
2022/09/21 07:54:10;;;;;;;;;;;;;;;28.80;30.16;100771.84;5011023;28;1029;-43
2022/09/21 07:56:35;;;;;;;;;;;;;;;28.82;30.40;100775.19;5015898;28;1199;-40
2022/09/21 07:59:06;;;;;;;;;;;;;;;28.88;30.17;100770.88;5015494;28;1957;-41
2022/09/21 08:01:32;;;;;;;;;;;;;;;28.92;30.10;100773.00;4996144;28;1056;-41
2022/09/21 08:03:58;;;;;;;;;;;;;;;28.21;31.77;100777.25;5013977;28;1159;-42
2022/09/21 08:06:24;;;;;;;;;;;;;;;27.81;32.62;100769.47;5015349;28;1119;-42
2022/09/21 08:08:49;;;;;;;;;;;;;;;27.71;32.38;100767.88;5013612;28;1453;-42
2022/09/21 08:11:15;;;;;;;;;;;;;;;27.66;32.75;100764.84;5014952;28;1626;-43
2022/09/21 08:13:40;;;;;;;;;;;;;;;27.68;33.01;100762.84;5011444;28;1169;-45
2022/09/21 08:16:05;;;;;;;;;;;;;;;27.64;32.92;100756.13;5012825;28;1247;-41
2022/09/21 08:18:31;;;;;;;;;;;;;;;27.69;32.74;100764.53;5009264;28;1968;-41
2022/09/21 08:20:57;;;;;;;;;;;;;;;27.73;32.84;100763.13;5002460;28;1208;-40
2022/09/21 08:23:22;;;;;;;;;;;;;;;27.74;32.66;100761.25;5006306;28;1168;-43
2022/09/21 08:25:47;;;;;;;;;;;;;;;27.82;32.52;100760.31;5011011;28;1231;-43
2022/09/21 08:28:13;;;;;;;;;;;;;;;27.86;32.67;100759.75;4974545;28;1203480;-43
2022/09/21 08:30:39;;;;;;;;;;;;;;;27.88;32.43;100754.16;5007435;28;1251;-42
2022/09/21 08:33:05;;;;;;;;;;;;;;;27.87;32.58;100760.59;4999911;28;1240;-44
2022/09/21 08:35:31;;;;;;;;;;;;;;;27.95;32.52;100765.91;5007815;28;1155;-42
2022/09/21 08:37:56;;;;;;;;;;;;;;;27.67;30.33;100758.44;5019951;28;1975;-45
2022/09/21 08:40:21;;;;;;;;;;;;;;;27.84;31.01;100756.38;5009053;28;1176;-42
2022/09/21 08:42:56;;;;;;;;;;;;;;;27.92;31.99;100758.19;5009659;28;1025;-42
2022/09/21 08:45:21;;;;;;;;;;;;;;;28.04;31.77;100763.09;5016508;28;1120;-40
2022/09/21 08:47:51;;;;;;;;;;;;;;;28.07;31.79;100757.31;5018216;28;841;-42
2022/09/21 08:50:54;;;;;;;;;;;;;;;28.15;31.75;100762.59;5020160;28;1077;-40
2022/09/21 08:53:33;;;;;;;;;;;;;;;28.10;31.88;100752.38;4939759;29;1205;-43
2022/09/21 08:55:58;;;;;;;;;;;;;;;28.21;31.59;100758.31;4939898;29;1110;-41
2022/09/21 08:58:24;;;;;;;;;;;;;;;28.18;31.91;100751.41;4964301;28;1906;-41
2022/09/21 09:01:02;;;;;;;;;;;;;;;28.30;31.29;100743.63;5007892;28;1254;-43
2022/09/21 09:03:42;;;;;;;;;;;;;;;28.25;31.51;100727.13;5018981;28;1032;-42
2022/09/21 09:06:08;;;;;;;;;;;;;;;28.28;31.41;100736.75;5011990;28;1263;-41
2022/09/21 09:08:48;;;;;;;;;;;;;;;28.41;31.79;100733.38;5019385;28;1290;-41
2022/09/21 09:11:17;;;;;;;;;;;;;;;28.43;31.55;100728.59;5013052;28;1581;-44
2022/09/21 09:13:48;;;;;;;;;;;;;;;28.55;31.15;100732.47;5003121;28;1314;-40
2022/09/21 09:16:14;;;;;;;;;;;;;;;28.57;31.37;100729.56;5018353;28;1235;-40
2022/09/21 09:18:43;;;;;;;;;;;;;;;28.59;31.28;100730.22;5003692;28;1906;-41
2022/09/21 09:21:11;;;;;;;;;;;;;;;28.13;29.07;100723.28;5013857;28;1241;-41
2022/09/21 09:23:36;;;;;;;;;;;;;;;28.15;28.40;100718.47;5011265;28;1234;-43
2022/09/21 09:26:04;;;;;;;;;;;;;;;28.56;29.40;100726.00;5007112;28;1323;-41
2022/09/21 09:28:44;;;;;;;;;;;;;;;28.63;29.95;100717.16;5002759;28;1277;-42
2022/09/21 09:31:23;;;;;;;;;;;;;;;28.74;30.12;100713.91;5015243;28;1160;-40
2022/09/21 09:34:06;;;;;;;;;;;;;;;28.87;30.15;100713.19;5013152;28;978;-42
2022/09/21 09:36:34;;;;;;;;;;;;;;;28.98;29.84;100714.53;5013930;28;1160;-43
2022/09/21 09:39:00;;;;;;;;;;;;;;;28.91;30.27;100714.44;5004917;28;1902;-42
2022/09/21 09:41:30;;;;;;;;;;;;;;;28.86;30.10;100706.09;5012675;28;1132;-44
2022/09/21 09:43:55;;;;;;;;;;;;;;;28.70;30.16;100704.50;5009203;28;1173;-43
2022/09/21 09:46:27;;;;;;;;;;;;;;;28.43;31.06;100709.66;5018577;28;1203;-42
2022/09/21 09:49:05;;;;;;;;;;;;;;;28.39;30.82;100708.38;5017719;28;904;-43
2022/09/21 09:51:32;;;;;;;;;;;;;;;28.20;31.20;100699.81;5017560;28;1133;-43
2022/09/21 09:53:58;;;;;;;;;;;;;;;28.13;31.52;100693.53;5011211;28;1097;-44
2022/09/21 09:56:23;;;;;;;;;;;;;;;28.02;32.12;100694.84;5008040;28;1171;-41
2022/09/21 09:58:52;;;;;;;;;;;;;;;27.97;32.15;100696.25;5007921;28;1902;-41
2022/09/21 10:01:37;;;;;;;;;;;;;;;27.89;32.40;100685.56;5012335;28;950;-41
2022/09/21 10:04:03;;;;;;;;;;;;;;;27.82;32.09;100687.34;5018431;28;1207;-40
2022/09/21 10:06:32;;;;;;;;;;;;;;;27.91;31.99;100691.59;5018324;28;1191;-41
2022/09/21 10:08:57;;;;;;;;;;;;;;;28.30;29.12;100688.69;5018289;28;1215;-44
2022/09/21 10:11:22;;;;;;;;;;;;;;;28.46;29.47;100688.47;5018665;28;1210;-42
2022/09/21 10:13:48;;;;;;;;;;;;;;;28.01;28.70;100683.19;5017261;28;1259;-43
2022/09/21 10:16:14;;;;;;;;;;;;;;;27.95;28.85;100675.84;5009861;28;1205;-43
2022/09/21 10:18:42;;;;;;;;;;;;;;;27.98;29.98;100664.63;5016425;28;1961;-43
2022/09/21 10:21:08;;;;;;;;;;;;;;;28.41;28.61;100680.09;5009505;28;1132;-43
2022/09/21 10:23:33;;;;;;;;;;;;;;;28.67;28.66;100673.25;5017806;28;1178;-43
2022/09/21 10:26:00;;;;;;;;;;;;;;;28.17;27.71;100673.16;5009528;28;1199;-43
2022/09/21 10:28:25;;;;;;;;;;;;;;;28.45;28.88;100664.31;5016567;28;1062;-41
2022/09/21 10:31:06;;;;;;;;;;;;;;;28.31;29.36;100672.25;5015697;28;1287;-42
2022/09/21 10:33:31;;;;;;;;;;;;;;;28.42;29.48;100667.41;5008929;28;1108;-42
2022/09/21 10:35:57;;;;;;;;;;;;;;;28.22;30.10;100662.63;5008150;28;1246;-43
2022/09/21 10:38:26;;;;;;;;;;;;;;;28.14;29.58;100660.88;5007847;28;1910;-42
2022/09/21 10:40:51;;;;;;;;;;;;;;;28.10;29.78;100664.97;5003781;28;1195;-43
2022/09/21 10:43:39;;;;;;;;;;;;;;;28.14;29.77;100662.72;5013235;28;1145;-43
2022/09/21 10:46:04;;;;;;;;;;;;;;;28.21;29.73;100667.16;5016760;28;1113;-41
2022/09/21 10:48:29;;;;;;;;;;;;;;;28.13;29.82;100669.19;5016008;28;988;-43
2022/09/21 10:50:55;;;;;;;;;;;;;;;28.18;29.81;100667.56;5017733;28;1156;-42
2022/09/21 10:53:29;;;;;;;;;;;;;;;28.22;29.33;100668.03;5016171;28;1204;-41
2022/09/21 10:55:59;;;;;;;;;;;;;;;28.17;29.92;100656.94;5017176;28;1207;-43
2022/09/21 10:58:24;;;;;;;;;;;;;;;28.13;29.91;100666.47;5017507;28;1906;-44
2022/09/21 11:00:50;;;;;;;;;;;;;;;28.06;29.81;100661.81;5017289;28;1011;-43
2022/09/21 11:03:34;;;;;;;;;;;;;;;28.03;29.46;100658.69;5016847;28;1132;-42
2022/09/21 11:06:04;;;;;;;;;;;;;;;27.93;29.42;100651.69;5012121;28;1453;-42
2022/09/21 11:08:53;;;;;;;;;;;;;;;27.85;29.83;100666.19;5005519;28;1410;-42
2022/09/21 11:11:20;;;;;;;;;;;;;;;27.82;30.14;100661.16;4993578;28;1217;-43
2022/09/21 11:13:45;;;;;;;;;;;;;;;27.74;30.03;100661.28;5011322;28;871;-42
2022/09/21 11:16:13;;;;;;;;;;;;;;;27.77;29.97;100663.59;5011883;28;1191;-44
2022/09/21 11:18:38;;;;;;;;;;;;;;;27.78;29.62;100665.25;5008220;28;2355;-43
2022/09/21 11:21:09;;;;;;;;;;;;;;;27.75;29.95;100665.63;5017389;28;1140;-44
2022/09/21 11:23:53;;;;;;;;;;;;;;;27.80;29.29;100667.75;5016687;28;1208;-43
2022/09/21 11:26:29;;;;;;;;;;;;;;;27.69;30.43;100661.00;5016945;28;917;-43
2022/09/21 11:28:58;;;;;;;;;;;;;;;27.60;30.24;100671.03;5015532;28;1524;-41
2022/09/21 11:31:30;;;;;;;;;;;;;;;27.59;30.54;100672.06;5016007;28;1208;-50
2022/09/21 11:33:59;;;;;;;;;;;;;;;27.68;30.14;100679.06;5010363;28;1224;-42
2022/09/21 11:36:34;;;;;;;;;;;;;;;27.83;28.79;100683.59;5007194;28;1340;-45
2022/09/21 11:39:22;;;;;;;;;;;;;;;27.40;27.21;100693.22;5013865;28;1968;-47
2022/09/21 11:41:48;;;;;;;;;;;;;;;27.02;28.56;100692.28;5002581;28;1262;-45
2022/09/21 11:44:29;;;;;;;;;;;;;;;27.42;29.23;100701.97;5003452;28;1381;-45
2022/09/21 11:47:04;;;;;;;;;;;;;;;27.51;30.21;100710.81;5009871;28;985;-44
2022/09/21 11:49:42;;;;;;;;;;;;;;;27.78;30.21;100719.31;5016166;28;1159;-41
2022/09/21 11:52:25;;;;;;;;;;;;;;;27.69;30.56;100729.41;5015589;28;1211;-46
2022/09/21 11:55:13;;;;;;;;;;;;;;;27.50;30.79;100714.56;5015285;28;1163;-44
2022/09/21 11:57:38;;;;;;;;;;;;;;;27.30;31.04;100730.47;5016645;28;1959;-48
2022/09/21 12:00:16;;;;;;;;;;;;;;;27.42;31.20;100737.09;5016227;28;1250;-45
2022/09/21 12:02:41;;;;;;;;;;;;;;;27.36;31.93;100735.97;5015694;28;1120;-43
2022/09/21 12:05:19;;;;;;;;;;;;;;;27.35;32.04;100742.41;5016380;28;1254;-45
2022/09/21 12:08:04;;;;;;;;;;;;;;;27.29;32.00;100742.31;5001105;28;1398;-45
2022/09/21 12:10:48;;;;;;;;;;;;;;;27.29;32.47;100734.19;4980124;28;1106;-45
2022/09/21 12:13:17;;;;;;;;;;;;;;;27.26;32.45;100730.84;5015464;28;1183;-42
2022/09/21 12:16:02;;;;;;;;;;;;;;;27.38;31.77;100754.69;4997120;28;1277;-45
2022/09/21 12:18:30;;;;;;;;;;;;;;;27.49;32.14;100731.78;5013714;28;1971;-44
2022/09/21 12:21:14;;;;;;;;;;;;;;;27.46;33.27;100730.28;5007915;28;1199;-44
2022/09/21 12:23:44;;;;;;;;;;;;;;;27.41;33.43;100745.38;5016551;28;1112;-43
2022/09/21 12:26:10;;;;;;;;;;;;;;;27.39;33.94;100732.88;5014488;28;966;-38
2022/09/21 12:28:37;;;;;;;;;;;;;;;27.31;33.39;100715.94;5014551;28;1195;-42
2022/09/21 12:31:04;;;;;;;;;;;;;;;27.26;33.07;100714.63;5000031;28;1236;-45
2022/09/21 12:33:48;;;;;;;;;;;;;;;27.34;33.43;100713.69;5006315;28;1235;-44
2022/09/21 12:36:21;;;;;;;;;;;;;;;27.28;33.16;100697.44;5016089;28;1223;-44
2022/09/21 12:38:51;;;;;;;;;;;;;;;27.29;32.62;100680.19;5012907;28;1965;-45
2022/09/21 12:41:17;;;;;;;;;;;;;;;27.38;32.73;100670.94;5009306;28;1208;-44
2022/09/21 12:44:01;;;;;;;;;;;;;;;27.38;33.01;100662.84;5014739;28;1416;-46
2022/09/21 12:46:34;;;;;;;;;;;;;;;27.42;32.35;100676.81;5014802;28;1152;-42
2022/09/21 12:49:00;;;;;;;;;;;;;;;27.48;32.91;100682.31;5015999;28;1532;-43
2022/09/21 12:51:25;;;;;;;;;;;;;;;27.61;32.87;100691.63;5012308;28;1160;-43
2022/09/21 12:53:55;;;;;;;;;;;;;;;27.69;32.75;100690.72;5016418;28;1124;-43
2022/09/21 12:56:36;;;;;;;;;;;;;;;27.85;32.54;100697.78;5015076;28;1247;-42